createdAt,value
2018-09-23T00:03:35.037Z,10.20
2018-09-23T00:06:05.425Z,10.20
2018-09-23T00:08:35.680Z,10.20
2018-09-23T00:11:06.034Z,10.30
2018-09-23T00:13:36.400Z,10.20
2018-09-23T00:16:06.953Z,10.10
2018-09-23T00:18:37.508Z,10.00
2018-09-23T00:21:07.983Z,10.00
2018-09-23T00:23:38.257Z,10.10
2018-09-23T00:31:08.292Z,10.50
2018-09-23T00:33:38.677Z,10.50
2018-09-23T00:36:08.952Z,10.50
2018-09-23T00:38:39.348Z,10.50
2018-09-23T00:41:09.900Z,10.50
2018-09-23T00:43:40.266Z,10.50
2018-09-23T00:48:40.255Z,10.60
2018-09-23T00:51:10.693Z,10.70
2018-09-23T00:53:40.967Z,10.80
2018-09-23T00:56:11.227Z,10.80
2018-09-23T00:58:41.513Z,10.70
2018-09-23T01:01:11.888Z,10.80
2018-09-23T01:08:41.329Z,10.90
2018-09-23T01:11:11.665Z,10.80
2018-09-23T01:13:41.981Z,10.80
2018-09-23T01:16:12.244Z,10.80
2018-09-23T01:18:42.565Z,10.80
2018-09-23T01:21:12.764Z,10.80
2018-09-23T01:26:12.769Z,11.00
2018-09-23T01:28:43.113Z,11.00
2018-09-23T01:33:42.975Z,11.00
2018-09-23T01:36:13.273Z,11.00
2018-09-23T01:41:13.437Z,10.90
2018-09-23T01:43:43.684Z,10.90
2018-09-23T01:46:14.133Z,10.80
2018-09-23T01:48:44.435Z,10.80
2018-09-23T01:51:14.913Z,10.80
2018-09-23T01:58:44.564Z,10.70
2018-09-23T02:01:14.805Z,10.60
2018-09-23T02:03:45.023Z,10.50
2018-09-23T02:06:15.309Z,10.50
2018-09-23T02:08:45.597Z,10.40
2018-09-23T02:11:16.125Z,10.50
2018-09-23T02:13:46.409Z,10.40
2018-09-23T02:16:16.680Z,10.40
2018-09-23T02:18:47.173Z,10.50
2018-09-23T02:21:17.500Z,10.50
2018-09-23T02:23:47.866Z,10.50
2018-09-23T02:26:18.210Z,10.60
2018-09-23T02:28:48.524Z,10.60
2018-09-23T02:31:18.891Z,10.60
2018-09-23T02:33:49.242Z,10.60
2018-09-23T02:36:19.645Z,10.60
2018-09-23T02:38:49.852Z,10.60
2018-09-23T02:41:20.128Z,10.70
2018-09-23T02:43:50.440Z,10.60
2018-09-23T02:46:20.811Z,10.70
2018-09-23T02:48:51.017Z,10.70
2018-09-23T02:51:21.341Z,10.60
2018-09-23T02:53:51.665Z,10.60
2018-09-23T02:56:22.028Z,10.60
2018-09-23T02:58:52.277Z,10.70
2018-09-23T03:01:22.678Z,10.80
2018-09-23T03:03:52.890Z,10.90
2018-09-23T03:06:23.156Z,11.00
2018-09-23T03:08:53.609Z,11.00
2018-09-23T03:11:23.905Z,11.00
2018-09-23T03:13:54.218Z,11.00
2018-09-23T03:16:24.621Z,11.00
2018-09-23T03:18:54.821Z,10.90
2018-09-23T03:23:54.663Z,10.80
2018-09-23T03:26:24.961Z,10.80
2018-09-23T03:28:55.505Z,10.80
2018-09-23T03:31:25.854Z,10.80
2018-09-23T03:33:56.129Z,10.80
2018-09-23T03:36:26.432Z,10.80
2018-09-23T03:38:56.652Z,10.80
2018-09-23T03:41:27.003Z,10.80
2018-09-23T03:43:57.260Z,10.90
2018-09-23T03:46:27.589Z,10.90
2018-09-23T03:48:57.857Z,10.90
2018-09-23T03:51:28.201Z,10.90
2018-09-23T03:56:28.369Z,10.80
2018-09-23T03:58:58.592Z,10.80
2018-09-23T04:01:28.992Z,10.80
2018-09-23T04:03:59.239Z,10.80
2018-09-23T04:06:29.609Z,10.80
2018-09-23T04:08:59.949Z,10.80
2018-09-23T04:11:30.217Z,10.80
2018-09-23T04:14:00.540Z,10.80
2018-09-23T04:16:30.732Z,10.80
2018-09-23T04:21:30.769Z,10.90
2018-09-23T04:26:30.662Z,10.90
2018-09-23T04:29:00.924Z,10.90
2018-09-23T04:34:00.692Z,11.00
2018-09-23T04:36:30.962Z,11.00
2018-09-23T04:39:01.248Z,11.00
2018-09-23T04:41:31.742Z,11.00
2018-09-23T04:44:01.997Z,11.00
2018-09-23T04:46:32.365Z,11.00
2018-09-23T04:54:01.968Z,11.00
2018-09-23T04:56:32.277Z,11.00
2018-09-23T04:59:02.480Z,11.10
2018-09-23T05:01:32.660Z,11.00
2018-09-23T05:04:02.996Z,11.00
2018-09-23T05:09:03.086Z,11.00
2018-09-23T05:11:33.412Z,11.00
2018-09-23T05:14:04.042Z,11.00
2018-09-23T05:16:34.493Z,11.00
2018-09-23T05:19:04.960Z,11.00
2018-09-23T05:21:35.313Z,11.00
2018-09-23T05:24:05.689Z,11.10
2018-09-23T05:26:36.038Z,11.10
2018-09-23T05:29:06.504Z,11.10
2018-09-23T05:31:36.684Z,11.20
2018-09-23T05:34:07.012Z,11.20
2018-09-23T05:36:37.230Z,11.30
2018-09-23T05:39:09.549Z,11.40
2018-09-23T05:41:39.929Z,11.40
2018-09-23T05:44:10.577Z,11.50
2018-09-23T05:46:40.778Z,11.60
2018-09-23T05:49:11.634Z,11.70
2018-09-23T05:51:42.040Z,11.70
2018-09-23T05:54:12.446Z,11.80
2018-09-23T05:56:42.688Z,11.80
2018-09-23T05:59:13.084Z,11.80
2018-09-23T06:04:12.969Z,11.70
2018-09-23T06:06:43.233Z,11.80
2018-09-23T06:11:43.293Z,11.90
2018-09-23T06:14:13.594Z,11.90
2018-09-23T06:16:43.905Z,12.00
2018-09-23T06:19:14.201Z,12.00
2018-09-23T06:21:44.601Z,12.20
2018-09-23T06:24:14.776Z,12.20
2018-09-23T06:26:45.217Z,12.30
2018-09-23T06:31:45.249Z,12.30
2018-09-23T06:34:15.661Z,12.40
2018-09-23T06:36:45.929Z,12.60
2018-09-23T06:39:16.285Z,12.70
2018-09-23T06:41:46.613Z,12.80
2018-09-23T06:44:17.053Z,12.90
2018-09-23T06:46:47.361Z,13.10
2018-09-23T06:49:17.648Z,13.20
2018-09-23T06:51:47.876Z,13.20
2018-09-23T06:54:18.122Z,13.30
2018-09-23T06:56:48.513Z,13.40
2018-09-23T06:59:18.866Z,13.60
2018-09-23T07:01:49.504Z,13.70
2018-09-23T07:04:19.660Z,13.60
2018-09-23T07:06:50.292Z,13.70
2018-09-23T07:09:20.548Z,13.80
2018-09-23T07:11:50.845Z,13.80
2018-09-23T07:16:50.532Z,13.90
2018-09-23T07:19:20.790Z,14.00
2018-09-23T07:24:20.902Z,13.80
2018-09-23T07:26:51.524Z,13.90
2018-09-23T07:29:21.840Z,14.00
2018-09-23T07:31:52.097Z,13.90
2018-09-23T07:34:22.613Z,14.10
2018-09-23T07:39:22.534Z,13.90
2018-09-23T07:41:53.065Z,14.10
2018-09-23T07:44:23.493Z,14.10
2018-09-23T07:46:53.872Z,14.20
2018-09-23T07:49:24.220Z,14.20
2018-09-23T07:51:54.668Z,14.30
2018-09-23T07:54:24.967Z,14.30
2018-09-23T07:56:55.441Z,14.40
2018-09-23T07:59:25.731Z,14.40
2018-09-23T08:01:56.336Z,14.50
2018-09-23T08:04:26.601Z,14.60
2018-09-23T08:06:56.953Z,14.50
2018-09-23T08:11:56.944Z,14.50
2018-09-23T08:14:27.360Z,14.50
2018-09-23T08:21:56.898Z,15.00
2018-09-23T08:24:27.270Z,15.10
2018-09-23T08:26:57.521Z,15.10
2018-09-23T08:29:28.288Z,14.80
2018-09-23T08:31:58.581Z,14.90
2018-09-23T08:34:28.801Z,15.00
2018-09-23T08:36:59.022Z,15.10
2018-09-23T08:39:29.187Z,15.00
2018-09-23T08:41:59.601Z,14.90
2018-09-23T08:44:29.933Z,14.80
2018-09-23T08:47:00.250Z,14.80
2018-09-23T08:49:30.644Z,14.70
2018-09-23T08:52:01.048Z,15.00
2018-09-23T08:54:31.328Z,15.20
2018-09-23T08:57:01.655Z,15.30
2018-09-23T08:59:32.241Z,15.80
2018-09-23T09:02:02.468Z,15.60
2018-09-23T09:04:32.761Z,15.40
2018-09-23T09:14:32.345Z,15.80
2018-09-23T09:17:02.600Z,15.40
2018-09-23T09:19:35.040Z,15.50
2018-09-23T09:22:05.394Z,15.60
2018-09-23T09:24:35.763Z,15.90
2018-09-23T09:29:35.993Z,16.40
2018-09-23T09:34:35.854Z,15.80
2018-09-23T09:37:06.289Z,15.50
2018-09-23T09:39:36.502Z,15.10
2018-09-23T09:42:12.128Z,15.10
2018-09-23T09:47:12.116Z,15.90
2018-09-23T09:49:42.644Z,15.80
2018-09-23T09:52:19.016Z,16.00
2018-09-23T09:54:49.568Z,16.10
2018-09-23T09:57:24.857Z,16.30
2018-09-23T09:59:55.715Z,16.60
2018-09-23T10:02:26.052Z,16.50
2018-09-23T10:04:57.369Z,16.40
2018-09-23T10:07:31.404Z,16.30
2018-09-23T10:10:07.360Z,16.70
2018-09-23T10:12:43.317Z,16.70
2018-09-23T10:15:15.958Z,16.40
2018-09-23T10:20:22.035Z,16.30
2018-09-23T10:22:52.353Z,16.00
2018-09-23T10:30:27.120Z,16.20
2018-09-23T10:33:01.628Z,16.00
2018-09-23T10:35:31.889Z,15.80
2018-09-23T10:38:02.232Z,16.10
2018-09-23T10:40:35.433Z,16.10
2018-09-23T10:43:06.678Z,16.20
2018-09-23T10:45:37.085Z,16.40
2018-09-23T10:53:14.485Z,15.90
2018-09-23T10:55:44.993Z,15.70
2018-09-23T11:00:49.453Z,15.70
2018-09-23T11:03:19.713Z,15.90
2018-09-23T11:05:50.259Z,16.10
2018-09-23T11:10:51.257Z,15.70
2018-09-23T11:13:21.616Z,15.80
2018-09-23T11:15:52.209Z,15.60
2018-09-23T11:18:29.513Z,15.60
2018-09-23T11:21:07.187Z,16.00
2018-09-23T11:23:37.611Z,15.60
2018-09-23T11:26:09.938Z,15.70
2018-09-23T11:28:40.256Z,16.00
2018-09-23T11:31:13.277Z,15.90
2018-09-23T11:33:44.357Z,16.00
2018-09-23T11:36:16.369Z,16.10
2018-09-23T11:41:16.127Z,15.90
2018-09-23T11:43:46.288Z,15.70
2018-09-23T11:46:16.914Z,15.60
2018-09-23T11:48:47.305Z,15.30
2018-09-23T11:51:17.569Z,15.20
2018-09-23T11:53:54.056Z,15.20
2018-09-23T12:01:36.056Z,15.20
2018-09-23T12:04:06.421Z,15.10
2018-09-23T12:09:09.202Z,15.40
2018-09-23T12:14:15.097Z,15.60
2018-09-23T12:16:47.461Z,15.30
2018-09-23T12:21:47.316Z,16.00
2018-09-23T12:24:18.431Z,16.30
2018-09-23T12:31:47.996Z,17.10
2018-09-23T12:34:18.364Z,16.80
2018-09-23T12:36:48.716Z,16.90
2018-09-23T12:46:55.177Z,16.20
2018-09-23T12:52:04.029Z,15.90
2018-09-23T12:54:35.410Z,15.80
2018-09-23T12:57:08.309Z,15.80
2018-09-23T12:59:39.250Z,15.80
2018-09-23T13:04:39.161Z,15.90
2018-09-23T13:07:16.417Z,15.80
2018-09-23T13:12:29.123Z,15.90
2018-09-23T13:15:00.301Z,16.00
2018-09-23T13:17:31.179Z,16.40
2018-09-23T13:22:32.921Z,16.30
2018-09-23T13:27:40.801Z,15.80
2018-09-23T13:30:13.425Z,15.60
2018-09-23T13:32:48.495Z,15.70
2018-09-23T13:35:19.558Z,15.60
2018-09-23T13:37:52.416Z,15.60
2018-09-23T13:42:55.463Z,15.60
2018-09-23T13:45:28.054Z,15.70
2018-09-23T13:47:58.407Z,15.80
2018-09-23T13:52:58.026Z,15.90
2018-09-23T13:57:59.330Z,16.00
2018-09-23T14:03:05.884Z,16.00
2018-09-23T14:08:12.038Z,16.20
2018-09-23T14:10:45.535Z,16.20
2018-09-23T14:13:21.196Z,16.00
2018-09-23T14:15:51.964Z,16.00
2018-09-23T14:20:56.753Z,15.80
2018-09-23T14:23:27.072Z,15.80
2018-09-23T14:25:57.218Z,15.70
2018-09-23T14:28:27.331Z,15.80
2018-09-23T14:31:00.422Z,15.70
2018-09-23T14:33:35.776Z,15.60
2018-09-23T14:36:06.234Z,15.60
2018-09-23T14:38:37.388Z,15.70
2018-09-23T14:41:10.466Z,15.50
2018-09-23T14:43:44.445Z,15.40
2018-09-23T14:48:44.408Z,15.30
2018-09-23T14:51:15.565Z,15.00
2018-09-23T14:56:23.265Z,14.50
2018-09-23T14:58:53.345Z,14.50
2018-09-23T15:01:24.529Z,14.30
2018-09-23T15:03:57.252Z,14.30
2018-09-23T15:06:29.501Z,14.10
2018-09-23T15:09:10.489Z,14.10
2018-09-23T15:11:46.188Z,14.10
2018-09-23T15:14:18.288Z,14.30
2018-09-23T15:16:49.349Z,14.30
2018-09-23T15:19:23.033Z,14.50
2018-09-23T15:21:53.437Z,14.50
2018-09-23T15:24:29.406Z,14.40
2018-09-23T15:26:59.705Z,14.10
2018-09-23T15:32:25.470Z,14.20
2018-09-23T15:35:01.163Z,14.20
2018-09-23T15:40:07.083Z,13.80
2018-09-23T15:42:38.105Z,13.60
2018-09-23T15:53:11.336Z,12.30
2018-09-23T16:00:47.145Z,11.90
2018-09-23T16:05:53.342Z,11.90
2018-09-23T16:08:27.513Z,12.00
2018-09-23T16:16:10.134Z,12.10
2018-09-23T16:18:41.481Z,12.00
2018-09-23T16:21:14.226Z,11.90
2018-09-23T16:23:48.542Z,11.70
2018-09-23T16:26:24.046Z,11.60
2018-09-23T16:31:29.281Z,11.40
2018-09-23T16:34:05.409Z,11.40
2018-09-23T16:36:40.819Z,11.30
2018-09-23T16:41:52.210Z,11.20
2018-09-23T16:46:58.187Z,11.20
2018-09-23T16:52:10.422Z,11.10
2018-09-23T16:54:49.790Z,11.10
2018-09-23T16:57:19.990Z,11.10
2018-09-23T16:59:51.273Z,11.10
2018-09-23T17:07:38.036Z,11.10
2018-09-23T17:12:44.170Z,11.10
2018-09-23T17:15:16.246Z,11.10
2018-09-23T17:17:52.003Z,11.00
2018-09-23T17:25:44.290Z,10.90
2018-09-23T17:28:20.957Z,11.00
2018-09-23T17:30:53.279Z,10.90
2018-09-23T17:33:35.068Z,11.00
2018-09-23T17:36:06.305Z,11.00
2018-09-23T17:46:22.960Z,11.00
2018-09-23T17:48:53.289Z,11.10
2018-09-23T17:54:05.265Z,11.10
2018-09-23T17:59:18.193Z,11.00
2018-09-23T18:07:03.320Z,11.10
2018-09-23T18:12:06.474Z,11.00
2018-09-23T18:14:42.284Z,11.10
2018-09-23T18:22:30.241Z,11.20
2018-09-23T18:27:30.207Z,11.40
2018-09-23T18:30:02.760Z,11.50
2018-09-23T18:35:09.882Z,11.50
2018-09-23T18:37:40.990Z,11.50
2018-09-23T18:42:46.255Z,11.10
2018-09-23T18:47:47.155Z,10.70
2018-09-23T18:50:18.278Z,10.70
2018-09-23T18:52:55.878Z,10.70
2018-09-23T18:55:32.378Z,10.70
2018-09-23T18:58:08.298Z,10.70
2018-09-23T19:00:39.851Z,10.70
2018-09-23T19:03:11.408Z,10.70
2018-09-23T19:05:46.446Z,10.60
2018-09-23T19:08:22.958Z,10.60
2018-09-23T19:13:34.466Z,10.60
2018-09-23T19:16:15.383Z,10.60
2018-09-23T19:18:51.952Z,10.70
2018-09-23T19:21:22.028Z,10.60
2018-09-23T19:23:53.240Z,10.70
2018-09-23T19:26:26.576Z,10.60
2018-09-23T19:31:34.470Z,10.50
2018-09-23T19:36:41.153Z,10.50
2018-09-23T19:39:11.525Z,10.50
2018-09-23T19:41:42.607Z,10.50
2018-09-23T19:44:13.478Z,10.40
2018-09-23T19:46:43.834Z,10.40
2018-09-23T19:49:14.221Z,10.40
2018-09-23T19:51:44.652Z,10.40
2018-09-23T19:54:16.150Z,10.40
2018-09-23T19:56:46.615Z,10.40
2018-09-23T19:59:17.058Z,10.40
2018-09-23T20:01:47.358Z,10.30
2018-09-23T20:04:17.726Z,10.30
2018-09-23T20:09:17.644Z,10.50
2018-09-23T20:11:47.694Z,10.50
2018-09-23T20:14:17.834Z,10.50
2018-09-23T20:16:47.881Z,10.50
2018-09-23T20:19:18.171Z,10.60
2018-09-23T20:21:48.455Z,10.60
2018-09-23T20:26:48.463Z,10.70
2018-09-23T20:29:18.846Z,10.70
2018-09-23T20:31:49.282Z,10.70
2018-09-23T20:34:20.667Z,10.80
2018-09-23T20:36:51.101Z,10.80
2018-09-23T20:39:21.424Z,10.80
2018-09-23T20:41:51.730Z,10.90
2018-09-23T20:44:22.462Z,10.90
2018-09-23T20:46:52.966Z,10.90
2018-09-23T20:49:23.368Z,10.90
2018-09-23T20:51:54.005Z,10.90
2018-09-23T20:54:24.515Z,10.90
2018-09-23T20:59:25.502Z,10.90
2018-09-23T21:01:56.519Z,10.90
2018-09-23T21:04:27.041Z,10.90
2018-09-23T21:06:57.663Z,10.90
2018-09-23T21:14:27.583Z,10.80
2018-09-23T21:16:58.027Z,10.80
2018-09-23T21:19:28.403Z,10.80
2018-09-23T21:21:58.682Z,10.80
2018-09-23T21:26:58.761Z,10.70
2018-09-23T21:29:28.923Z,10.70
2018-09-23T21:31:59.475Z,10.80
2018-09-23T21:36:59.435Z,10.80
2018-09-23T21:39:29.909Z,10.80
2018-09-23T21:42:00.487Z,10.80
2018-09-23T21:44:30.970Z,10.70
2018-09-23T21:47:01.521Z,10.70
2018-09-23T21:52:01.618Z,10.70
2018-09-23T21:54:31.994Z,10.70
2018-09-23T21:57:02.780Z,10.70
2018-09-23T21:59:32.910Z,10.60
2018-09-23T22:02:03.274Z,10.50
2018-09-23T22:04:33.328Z,10.50
2018-09-23T22:07:03.689Z,10.40
2018-09-23T22:09:34.011Z,10.40
2018-09-23T22:12:04.927Z,10.30
2018-09-23T22:14:35.366Z,10.30
2018-09-23T22:17:05.901Z,10.20
2018-09-23T22:19:36.363Z,10.20
2018-09-23T22:22:06.704Z,10.10
2018-09-23T22:24:37.198Z,10.10
2018-09-23T22:29:37.336Z,9.90
2018-09-23T22:34:37.242Z,9.70
2018-09-23T22:37:07.616Z,9.40
2018-09-23T22:39:38.270Z,9.20
2018-09-23T22:42:08.851Z,9.00
2018-09-23T22:49:38.603Z,8.60
2018-09-23T22:52:09.114Z,8.50
2018-09-23T22:57:09.217Z,8.50
2018-09-23T22:59:39.786Z,8.40
2018-09-23T23:02:10.178Z,8.40
2018-09-23T23:04:40.514Z,8.40
2018-09-23T23:07:10.791Z,8.40
2018-09-23T23:09:41.161Z,8.40
2018-09-23T23:12:11.487Z,8.40
2018-09-23T23:14:41.849Z,8.40
2018-09-23T23:17:12.583Z,8.40
2018-09-23T23:19:42.999Z,8.40
2018-09-23T23:24:42.990Z,8.50
2018-09-23T23:27:13.810Z,8.40
2018-09-23T23:29:44.052Z,8.40
2018-09-23T23:32:14.473Z,8.30
2018-09-23T23:34:44.758Z,8.20
2018-09-23T23:37:15.157Z,8.20
2018-09-23T23:42:15.229Z,8.20
2018-09-23T23:44:45.615Z,8.20
2018-09-23T23:47:16.071Z,8.10
2018-09-23T23:49:46.358Z,8.10
2018-09-23T23:52:16.664Z,8.10
2018-09-23T23:54:47.026Z,8.00
